Peralta, New Mexico
Current Conditions -  °F | °C
As of 4:52 PM on Friday 28 Nov 2014 (Local Time) from KABQ Reporting Station
Few Clouds Few Clouds  
Wind Chill: 58°   Ceiling: Unl
Heat Index: 58°   Visibility: 10mi
Dew Point: 20°   Wind: 3mph
Humidity: 23%   Direction: 190°S
Pressure: 30.1"   Gusts: NA
Location:  34.84°N, 106.69°W
Report Text: KABQ 282352Z 19003KT 10SM FEW250 14/M07 A3010 RMK AO2 SLP164 T01441067 10156 20106 56012
Loading
Personal Weather Stations






























Interactive Weather Map New forecast layout! Learn more

10-Day Weather Forecast

Advertisements
Track Severe Weather on mobile